Terminal Aerodrome Forecast
Issued by NWS

Home | Current Version | Previous Version | Text Only | Print | Product List | Glossary On
Versions: 1 2 3 4 5 6 7 8 9 10 11 12 13 14 15 16 17 18 19 20
000
FTUS41 KBGM 220500
TAFRME
TAF
KRME 220540Z 2206/2306 VRB02KT 5SM BR BKN015
      TEMPO 2209/2213 2SM BR BKN008
     FM221400 12005KT P6SM BKN040
     FM221800 12007KT 5SM SHRA BR BKN025 OVC035
     FM230000 11005KT 5SM BR BKN025=

USA.gov is the U.S. government's official web portal to all federal, state and local government web resources and services.